createdAt,value
2017-12-25T00:02:18.086Z,4.23
2017-12-25T00:04:45.559Z,4.43
2017-12-25T00:07:13.030Z,4.73
2017-12-25T00:09:40.625Z,3.80
2017-12-25T00:12:08.086Z,4.60
2017-12-25T00:14:35.598Z,4.83
2017-12-25T00:17:03.073Z,4.37
2017-12-25T00:19:31.338Z,4.17
2017-12-25T00:21:58.800Z,3.60
2017-12-25T00:24:27.041Z,4.83
2017-12-25T00:26:54.550Z,4.60
2017-12-25T00:29:22.006Z,4.90
2017-12-25T00:31:50.218Z,3.80
2017-12-25T00:34:18.154Z,3.80
2017-12-25T00:36:45.615Z,5.07
2017-12-25T00:39:13.171Z,4.83
2017-12-25T00:41:41.429Z,4.07
2017-12-25T00:44:08.891Z,5.03
2017-12-25T00:46:37.155Z,4.60
2017-12-25T00:49:04.644Z,4.60
2017-12-25T00:51:32.882Z,4.80
2017-12-25T00:54:00.367Z,3.87
2017-12-25T00:56:28.597Z,4.10
2017-12-25T00:58:56.089Z,4.40
2017-12-25T01:01:23.982Z,4.62
2017-12-25T01:03:51.464Z,3.67
2017-12-25T01:06:18.938Z,4.47
2017-12-25T01:08:46.418Z,4.43
2017-12-25T01:11:13.885Z,4.33
2017-12-25T01:13:41.361Z,3.80
2017-12-25T01:16:08.838Z,4.03
2017-12-25T01:18:36.340Z,4.70
2017-12-25T01:21:03.830Z,4.70
2017-12-25T01:23:31.308Z,5.10
2017-12-25T01:25:58.766Z,4.97
2017-12-25T01:28:26.265Z,4.80
2017-12-25T01:30:54.396Z,4.13
2017-12-25T01:33:21.854Z,4.10
2017-12-25T01:35:49.358Z,4.30
2017-12-25T01:38:17.673Z,5.07
2017-12-25T01:40:45.121Z,4.67
2017-12-25T01:43:12.617Z,4.90
2017-12-25T01:45:40.064Z,5.53
2017-12-25T01:48:08.284Z,5.60
2017-12-25T01:50:35.778Z,5.67
2017-12-25T01:53:03.229Z,5.63
2017-12-25T01:55:31.393Z,4.97
2017-12-25T01:57:59.685Z,5.20
2017-12-25T02:00:30.663Z,6.63
2017-12-25T02:02:58.857Z,6.47
2017-12-25T02:08:26.565Z,5.23
2017-12-25T02:10:54.977Z,5.77
2017-12-25T02:13:23.308Z,6.00
2017-12-25T02:15:50.777Z,6.30
2017-12-25T02:18:18.258Z,6.20
2017-12-25T02:20:45.766Z,6.00
2017-12-25T02:23:13.224Z,6.10
2017-12-25T02:25:40.711Z,6.30
2017-12-25T02:28:08.197Z,6.00
2017-12-25T02:30:35.662Z,6.43
2017-12-25T02:33:03.885Z,5.47
2017-12-25T02:35:31.358Z,5.40
2017-12-25T02:37:59.651Z,6.50
2017-12-25T02:40:27.121Z,7.20
2017-12-25T02:42:54.578Z,6.60
2017-12-25T02:45:22.047Z,5.97
2017-12-25T02:47:50.279Z,5.90
2017-12-25T02:50:17.750Z,6.50
2017-12-25T02:52:46.009Z,5.80
2017-12-25T02:55:13.471Z,6.20
2017-12-25T02:57:40.932Z,7.87
2017-12-25T03:00:08.418Z,6.97
2017-12-25T03:02:35.874Z,5.87
2017-12-25T03:05:03.354Z,5.50
2017-12-25T03:07:31.582Z,6.70
2017-12-25T03:09:59.684Z,6.60
2017-12-25T03:12:27.161Z,6.83
2017-12-25T03:14:56.316Z,6.50
2017-12-25T03:17:23.801Z,6.40
2017-12-25T03:19:51.302Z,7.03
2017-12-25T03:22:18.774Z,8.10
2017-12-25T03:24:46.268Z,7.00
2017-12-25T03:27:13.726Z,6.60
2017-12-25T03:29:41.219Z,6.57
2017-12-25T03:32:08.679Z,5.27
2017-12-25T03:34:36.902Z,6.73
2017-12-25T03:37:04.689Z,6.20
2017-12-25T03:39:32.263Z,5.00
2017-12-25T03:42:01.640Z,5.97
2017-12-25T03:44:29.413Z,6.53
2017-12-25T03:46:57.304Z,6.53
2017-12-25T03:49:25.706Z,5.77
2017-12-25T03:51:53.173Z,6.30
2017-12-25T03:54:20.621Z,5.77
2017-12-25T03:56:49.647Z,5.47
2017-12-25T03:59:17.092Z,5.80
2017-12-25T04:01:44.581Z,5.53
2017-12-25T04:04:12.029Z,6.00
2017-12-25T04:06:39.527Z,6.03
2017-12-25T04:09:07.764Z,5.67
2017-12-25T04:11:35.222Z,6.53
2017-12-25T04:14:02.709Z,6.90
2017-12-25T04:16:30.177Z,6.30
2017-12-25T04:18:57.640Z,5.50
2017-12-25T04:21:25.925Z,6.47
2017-12-25T04:23:53.389Z,4.70
2017-12-25T04:26:20.868Z,5.63
2017-12-25T04:28:48.354Z,5.13
2017-12-25T04:31:15.812Z,5.10
2017-12-25T04:33:43.265Z,6.13
2017-12-25T04:36:10.753Z,4.60
2017-12-25T04:38:38.221Z,4.17
2017-12-25T04:41:06.450Z,4.80
2017-12-25T04:43:34.707Z,4.27
2017-12-25T04:46:02.162Z,4.60
2017-12-25T04:48:29.697Z,4.60
2017-12-25T04:50:57.981Z,4.47
2017-12-25T04:53:26.211Z,4.37
2017-12-25T04:55:53.677Z,3.90
2017-12-25T04:58:21.138Z,5.33
2017-12-25T05:00:48.619Z,4.33
2017-12-25T05:03:16.865Z,5.00
2017-12-25T05:05:44.325Z,4.53
2017-12-25T05:08:11.845Z,4.73
2017-12-25T05:10:39.322Z,3.70
2017-12-25T05:13:06.798Z,4.57
2017-12-25T05:15:34.250Z,4.93
2017-12-25T05:18:01.742Z,3.80
2017-12-25T05:20:29.221Z,4.50
2017-12-25T05:22:57.441Z,4.90
2017-12-25T05:25:24.929Z,3.50
2017-12-25T05:27:52.413Z,4.57
2017-12-25T05:30:19.954Z,4.87
2017-12-25T05:32:48.199Z,2.90
2017-12-25T05:35:15.661Z,3.70
2017-12-25T05:37:43.154Z,3.70
2017-12-25T05:40:11.373Z,3.10
2017-12-25T05:42:39.351Z,3.63
2017-12-25T05:45:06.916Z,2.60
2017-12-25T05:47:34.434Z,3.10
2017-12-25T05:50:01.891Z,3.17
2017-12-25T05:52:29.375Z,2.27
2017-12-25T05:54:56.834Z,3.57
2017-12-25T05:57:24.316Z,3.10
2017-12-25T05:59:51.799Z,3.20
2017-12-25T06:02:19.270Z,3.07
2017-12-25T06:04:47.522Z,3.13
2017-12-25T06:07:14.992Z,3.70
2017-12-25T06:09:42.473Z,3.63
2017-12-25T06:12:10.691Z,2.20
2017-12-25T06:14:38.170Z,3.30
2017-12-25T06:17:05.637Z,3.00
2017-12-25T06:19:33.101Z,2.27
2017-12-25T06:22:00.577Z,2.70
2017-12-25T06:24:29.726Z,3.93
2017-12-25T06:26:57.198Z,3.27
2017-12-25T06:29:24.658Z,2.90
2017-12-25T06:31:52.135Z,3.73
2017-12-25T06:34:19.581Z,3.30
2017-12-25T06:36:47.084Z,2.70
2017-12-25T06:39:14.533Z,2.87
2017-12-25T06:41:42.017Z,3.27
2017-12-25T06:44:09.504Z,3.20
2017-12-25T06:46:36.952Z,3.07
2017-12-25T06:49:05.177Z,2.47
2017-12-25T06:51:32.639Z,2.10
2017-12-25T06:54:00.390Z,2.62
2017-12-25T06:56:28.613Z,2.40
2017-12-25T06:58:56.138Z,2.60
2017-12-25T07:01:23.606Z,2.23
2017-12-25T07:03:51.095Z,1.77
2017-12-25T07:06:18.553Z,1.77
2017-12-25T07:08:46.009Z,1.33
2017-12-25T07:11:13.490Z,1.97
2017-12-25T07:13:40.938Z,2.20
2017-12-25T07:16:08.415Z,1.77
2017-12-25T07:18:35.865Z,2.37
2017-12-25T07:21:03.343Z,2.00
2017-12-25T07:23:30.849Z,3.03
2017-12-25T07:25:58.331Z,2.40
2017-12-25T07:28:25.814Z,2.00
2017-12-25T07:30:54.043Z,2.90
2017-12-25T07:33:21.547Z,2.20
2017-12-25T07:35:48.989Z,2.80
2017-12-25T07:38:16.443Z,2.50
2017-12-25T07:40:44.768Z,2.40
2017-12-25T07:43:12.294Z,2.47
2017-12-25T07:45:39.843Z,2.23
2017-12-25T07:48:08.150Z,2.17
2017-12-25T07:50:35.769Z,2.50
2017-12-25T07:53:03.291Z,3.27
2017-12-25T07:55:31.576Z,2.62
2017-12-25T07:57:59.169Z,2.53
2017-12-25T08:00:27.637Z,2.47
2017-12-25T08:02:55.104Z,2.40
2017-12-25T08:05:23.462Z,2.37
2017-12-25T08:07:50.917Z,1.17
2017-12-25T08:10:18.503Z,2.60
2017-12-25T08:12:46.023Z,2.90
2017-12-25T08:15:13.465Z,2.70
2017-12-25T08:17:41.094Z,3.30
2017-12-25T08:20:08.624Z,2.87
2017-12-25T08:22:36.288Z,2.23
2017-12-25T08:25:04.077Z,3.47
2017-12-25T08:27:32.489Z,3.15
2017-12-25T08:30:01.229Z,2.80
2017-12-25T08:32:29.550Z,1.93
2017-12-25T08:34:57.620Z,2.80
2017-12-25T08:37:25.370Z,3.33
2017-12-25T08:39:53.235Z,2.13
2017-12-25T08:42:20.708Z,3.27
2017-12-25T08:44:48.381Z,3.20
2017-12-25T08:47:16.171Z,1.63
2017-12-25T08:49:43.628Z,3.13
2017-12-25T08:52:11.276Z,2.97
2017-12-25T08:54:38.745Z,2.67
2017-12-25T08:57:06.332Z,2.87
2017-12-25T08:59:33.847Z,2.90
2017-12-25T09:02:03.789Z,1.93
2017-12-25T09:04:31.496Z,2.87
2017-12-25T09:06:58.978Z,2.40
2017-12-25T09:09:27.399Z,3.43
2017-12-25T09:11:55.458Z,2.30
2017-12-25T09:14:22.949Z,3.20
2017-12-25T09:16:50.564Z,1.97
2017-12-25T09:19:18.228Z,3.30
2017-12-25T09:21:46.575Z,2.67
2017-12-25T09:24:14.197Z,3.53
2017-12-25T09:26:41.817Z,3.60
2017-12-25T09:29:09.451Z,3.90
2017-12-25T09:31:37.136Z,4.13
2017-12-25T09:34:05.380Z,2.73
2017-12-25T09:36:33.250Z,3.30
2017-12-25T09:39:00.739Z,2.90
2017-12-25T09:41:29.181Z,1.87
2017-12-25T09:43:56.692Z,3.53
2017-12-25T09:46:24.324Z,3.00
2017-12-25T09:48:51.817Z,4.47
2017-12-25T09:51:19.491Z,3.60
2017-12-25T09:53:47.162Z,3.67
2017-12-25T09:56:14.642Z,3.13
2017-12-25T09:58:42.149Z,3.30
2017-12-25T10:01:09.622Z,2.87
2017-12-25T10:03:37.842Z,3.33
2017-12-25T10:06:05.334Z,4.27
2017-12-25T10:08:33.731Z,2.13
2017-12-25T10:11:01.217Z,3.40
2017-12-25T10:13:28.685Z,3.77
2017-12-25T10:15:56.169Z,3.80
2017-12-25T10:18:23.654Z,4.20
2017-12-25T10:20:51.123Z,4.17
2017-12-25T10:23:18.589Z,4.20
2017-12-25T10:25:46.863Z,4.07
2017-12-25T10:28:15.083Z,3.03
2017-12-25T10:30:42.534Z,3.20
2017-12-25T10:33:10.018Z,3.10
2017-12-25T10:35:38.275Z,2.80
2017-12-25T10:38:05.785Z,2.77
2017-12-25T10:40:34.954Z,2.60
2017-12-25T10:43:02.422Z,2.47
2017-12-25T10:45:29.901Z,1.40
2017-12-25T10:47:58.133Z,1.80
2017-12-25T10:50:25.774Z,1.80
2017-12-25T10:52:53.222Z,1.23
2017-12-25T10:55:20.698Z,1.67
2017-12-25T10:57:48.169Z,1.20
2017-12-25T11:00:15.653Z,1.30
2017-12-25T11:02:43.111Z,1.50
2017-12-25T11:05:10.626Z,1.10
2017-12-25T11:07:38.826Z,0.80
2017-12-25T11:10:06.310Z,1.10
2017-12-25T11:12:34.710Z,1.00
2017-12-25T11:15:03.403Z,0.70
2017-12-25T11:17:30.888Z,0.60
2017-12-25T11:19:58.380Z,0.70
2017-12-25T11:22:25.842Z,0.77
2017-12-25T11:24:53.317Z,0.60
2017-12-25T11:27:20.770Z,0.77
2017-12-25T11:29:48.253Z,0.43
2017-12-25T11:32:15.702Z,0.70
2017-12-25T11:34:43.178Z,1.00
2017-12-25T11:37:10.677Z,0.60
2017-12-25T11:39:38.138Z,0.80
2017-12-25T11:42:05.597Z,0.93
2017-12-25T11:44:33.954Z,0.90
2017-12-25T11:47:01.412Z,0.60
2017-12-25T11:49:28.909Z,0.90
2017-12-25T11:51:56.357Z,1.47
2017-12-25T11:54:23.861Z,1.57
2017-12-25T11:56:51.327Z,1.47
2017-12-25T11:59:18.855Z,1.83
2017-12-25T12:01:47.133Z,2.53
2017-12-25T12:04:14.617Z,2.80
2017-12-25T12:06:42.067Z,1.73
2017-12-25T12:09:10.313Z,2.60
2017-12-25T12:11:38.556Z,1.90
2017-12-25T12:14:06.002Z,1.87
2017-12-25T12:16:33.482Z,1.77
2017-12-25T12:19:00.978Z,3.07
2017-12-25T12:21:29.198Z,1.67
2017-12-25T12:23:56.674Z,1.23
2017-12-25T12:26:24.174Z,1.80
2017-12-25T12:28:52.472Z,1.50
2017-12-25T12:31:19.952Z,2.00
2017-12-25T12:33:47.401Z,1.80
2017-12-25T12:36:14.870Z,2.57
2017-12-25T12:38:42.377Z,1.60
2017-12-25T12:41:09.827Z,2.37
2017-12-25T12:43:37.298Z,2.00
2017-12-25T12:46:06.483Z,1.90
2017-12-25T12:48:33.964Z,2.20
2017-12-25T12:51:02.644Z,1.70
2017-12-25T12:53:30.132Z,1.80
2017-12-25T12:55:57.545Z,2.07
2017-12-25T12:58:25.728Z,2.40
2017-12-25T13:00:53.237Z,2.10
2017-12-25T13:03:20.716Z,1.60
2017-12-25T13:05:48.965Z,2.27
2017-12-25T13:08:16.417Z,2.43
2017-12-25T13:10:43.897Z,1.83
2017-12-25T13:13:12.102Z,2.60
2017-12-25T13:15:39.587Z,2.53
2017-12-25T13:18:07.364Z,2.30
2017-12-25T13:20:35.620Z,2.47
2017-12-25T13:23:03.874Z,2.53
2017-12-25T13:25:31.351Z,1.63
2017-12-25T13:27:59.614Z,1.70
2017-12-25T13:30:27.083Z,3.10
2017-12-25T13:32:55.334Z,2.87
2017-12-25T13:35:22.792Z,2.47
2017-12-25T13:37:51.046Z,2.80
2017-12-25T13:40:18.530Z,3.00
2017-12-25T13:42:45.989Z,2.63
2017-12-25T13:45:13.502Z,2.10
2017-12-25T13:47:40.986Z,1.50
2017-12-25T13:50:08.440Z,1.70
2017-12-25T13:52:35.910Z,1.43
2017-12-25T13:55:03.393Z,2.30
2017-12-25T13:57:30.841Z,1.57
2017-12-25T13:59:58.290Z,1.87
2017-12-25T14:02:25.763Z,3.00
2017-12-25T14:04:53.246Z,2.30
2017-12-25T14:07:20.704Z,2.80
2017-12-25T14:09:48.166Z,2.30
2017-12-25T14:12:16.417Z,3.23
2017-12-25T14:14:43.885Z,4.27
2017-12-25T14:17:11.342Z,3.63
2017-12-25T14:19:38.818Z,3.97
2017-12-25T14:22:07.370Z,9.73
2017-12-25T14:24:34.829Z,6.10
2017-12-25T14:27:02.388Z,3.70
2017-12-25T14:29:29.914Z,3.87
2017-12-25T14:31:57.382Z,6.13
2017-12-25T14:34:25.665Z,3.80
2017-12-25T14:36:53.131Z,3.40
2017-12-25T14:39:20.727Z,5.00
2017-12-25T14:41:48.223Z,4.03
2017-12-25T14:44:15.758Z,2.60
2017-12-25T14:46:43.246Z,1.60
2017-12-25T14:49:10.694Z,1.77
2017-12-25T14:51:39.309Z,2.10
2017-12-25T14:54:06.874Z,1.80
2017-12-25T14:56:34.326Z,1.70
2017-12-25T14:59:01.823Z,1.87
2017-12-25T15:01:29.378Z,2.27
2017-12-25T15:03:57.676Z,1.10
2017-12-25T15:06:25.156Z,1.43
2017-12-25T15:08:52.889Z,1.60
2017-12-25T15:11:20.505Z,1.30
2017-12-25T15:13:48.002Z,1.67
2017-12-25T15:16:15.505Z,1.30
2017-12-25T15:18:43.029Z,1.60
2017-12-25T15:21:11.269Z,1.10
2017-12-25T15:23:39.767Z,3.47
2017-12-25T15:26:08.945Z,1.27
2017-12-25T15:28:36.450Z,2.00
2017-12-25T15:31:03.914Z,1.40
2017-12-25T15:33:31.390Z,1.50
2017-12-25T15:35:58.906Z,1.70
2017-12-25T15:38:27.559Z,2.10
2017-12-25T15:40:55.059Z,2.30
2017-12-25T15:43:23.266Z,2.90
2017-12-25T15:45:50.813Z,3.37
2017-12-25T15:48:18.697Z,3.60
2017-12-25T15:50:46.254Z,1.57
2017-12-25T15:53:13.858Z,2.20
2017-12-25T15:55:41.337Z,2.53
2017-12-25T15:58:09.005Z,2.40
2017-12-25T16:00:36.447Z,2.27
2017-12-25T16:03:04.086Z,1.90
2017-12-25T16:05:31.549Z,2.27
2017-12-25T16:07:59.037Z,2.07
2017-12-25T16:10:26.515Z,1.80
2017-12-25T16:12:54.738Z,2.33
2017-12-25T16:15:22.252Z,1.80
2017-12-25T16:17:50.757Z,1.97
2017-12-25T16:20:18.254Z,2.63
2017-12-25T16:22:45.705Z,2.00
2017-12-25T16:25:13.264Z,2.17
2017-12-25T16:27:41.255Z,2.22
2017-12-25T16:30:08.751Z,2.20
2017-12-25T16:32:36.206Z,2.50
2017-12-25T16:35:03.671Z,1.90
2017-12-25T16:37:31.166Z,1.67
2017-12-25T16:39:58.664Z,2.47
2017-12-25T16:42:26.910Z,3.23
2017-12-25T16:44:55.126Z,2.43
2017-12-25T16:47:22.586Z,1.93
2017-12-25T16:49:50.825Z,2.50
2017-12-25T16:52:18.294Z,2.20
2017-12-25T16:54:45.774Z,2.40
2017-12-25T16:57:13.980Z,2.77
2017-12-25T16:59:41.916Z,2.60
2017-12-25T17:02:10.138Z,2.07
2017-12-25T17:04:37.601Z,1.53
2017-12-25T17:07:05.055Z,2.50
2017-12-25T17:09:32.521Z,2.13
2017-12-25T17:11:59.969Z,2.20
2017-12-25T17:14:27.437Z,1.63
2017-12-25T17:16:54.935Z,1.70
2017-12-25T17:19:22.384Z,2.10
2017-12-25T17:21:49.848Z,1.83
2017-12-25T17:24:17.314Z,2.07
2017-12-25T17:26:44.782Z,1.40
2017-12-25T17:29:12.415Z,1.50
2017-12-25T17:31:39.882Z,1.67
2017-12-25T17:34:07.361Z,1.27
2017-12-25T17:36:34.802Z,1.20
2017-12-25T17:39:02.386Z,1.70
2017-12-25T17:41:29.828Z,1.60
2017-12-25T17:43:58.076Z,1.40
2017-12-25T17:46:25.535Z,1.40
2017-12-25T17:48:53.802Z,1.87
2017-12-25T17:51:21.626Z,1.70
2017-12-25T17:53:49.065Z,2.10
2017-12-25T17:56:16.515Z,2.43
2017-12-25T17:58:43.986Z,2.30
2017-12-25T18:01:11.463Z,3.10
2017-12-25T18:03:38.962Z,2.50
2017-12-25T18:06:06.417Z,2.23
2017-12-25T18:08:33.930Z,2.63
2017-12-25T18:11:02.003Z,2.37
2017-12-25T18:13:29.482Z,1.70
2017-12-25T18:15:56.945Z,2.63
2017-12-25T18:18:24.422Z,2.30
2017-12-25T18:20:51.885Z,1.90
2017-12-25T18:23:19.351Z,2.23
2017-12-25T18:25:46.850Z,2.37
2017-12-25T18:28:14.293Z,1.40
2017-12-25T18:30:43.454Z,2.27
2017-12-25T18:33:10.910Z,2.07
2017-12-25T18:35:39.152Z,2.07
2017-12-25T18:38:06.665Z,2.00
2017-12-25T18:40:34.145Z,1.60
2017-12-25T18:43:02.360Z,1.50
2017-12-25T18:45:29.938Z,1.50
2017-12-25T18:47:57.580Z,2.10
2017-12-25T18:50:25.066Z,1.60
2017-12-25T18:52:53.415Z,1.77
2017-12-25T18:55:21.673Z,1.33
2017-12-25T18:57:49.121Z,1.97
2017-12-25T19:00:17.406Z,1.10
2017-12-25T19:02:44.904Z,1.60
2017-12-25T19:05:12.361Z,1.23
2017-12-25T19:07:40.568Z,1.10
2017-12-25T19:10:08.054Z,1.47
2017-12-25T19:12:38.350Z,1.20
2017-12-25T19:15:05.881Z,1.30
2017-12-25T19:17:33.381Z,1.60
2017-12-25T19:20:01.623Z,1.67
2017-12-25T19:22:29.842Z,1.70
2017-12-25T19:24:58.090Z,1.50
2017-12-25T19:27:25.557Z,2.10
2017-12-25T19:29:53.033Z,2.03
2017-12-25T19:32:20.517Z,1.77
2017-12-25T19:34:47.982Z,2.00
2017-12-25T19:37:15.461Z,1.80
2017-12-25T19:39:42.953Z,1.50
2017-12-25T19:42:11.195Z,1.50
2017-12-25T19:44:38.673Z,1.03
2017-12-25T19:47:06.140Z,1.40
2017-12-25T19:49:33.619Z,1.93
2017-12-25T19:52:01.838Z,1.60
2017-12-25T19:54:29.314Z,1.40
2017-12-25T19:56:56.771Z,1.50
2017-12-25T19:59:24.286Z,1.57
2017-12-25T20:01:51.761Z,1.80
2017-12-25T20:04:19.220Z,1.70
2017-12-25T20:06:46.706Z,1.60
2017-12-25T20:09:14.174Z,1.80
2017-12-25T20:11:41.613Z,1.80
2017-12-25T20:14:09.086Z,1.43
2017-12-25T20:16:37.325Z,1.80
2017-12-25T20:19:04.810Z,1.90
2017-12-25T20:21:32.344Z,1.77
2017-12-25T20:23:59.776Z,1.47
2017-12-25T20:26:27.270Z,1.67
2017-12-25T20:28:54.768Z,1.37
2017-12-25T20:31:23.017Z,2.00
2017-12-25T20:33:50.489Z,1.50
2017-12-25T20:36:17.973Z,1.30
2017-12-25T20:38:46.914Z,1.45
2017-12-25T20:41:14.370Z,1.50
2017-12-25T20:43:41.841Z,1.93
2017-12-25T20:46:09.295Z,1.30
2017-12-25T20:48:36.786Z,1.23
2017-12-25T20:51:04.246Z,1.60
2017-12-25T20:53:31.705Z,1.67
2017-12-25T20:55:59.189Z,1.47
2017-12-25T20:58:26.777Z,0.97
2017-12-25T21:00:54.233Z,1.90
2017-12-25T21:03:21.690Z,1.80
2017-12-25T21:05:49.165Z,1.60
2017-12-25T21:08:17.538Z,1.67
2017-12-25T21:10:45.010Z,1.97
2017-12-25T21:13:13.286Z,1.60
2017-12-25T21:15:40.738Z,1.60
2017-12-25T21:18:08.214Z,1.50
2017-12-25T21:20:35.711Z,1.77
2017-12-25T21:23:03.184Z,1.50
2017-12-25T21:25:32.205Z,1.57
2017-12-25T21:27:59.722Z,1.30
2017-12-25T21:30:27.937Z,1.33
2017-12-25T21:32:55.410Z,1.63
2017-12-25T21:35:23.673Z,1.50
2017-12-25T21:37:51.142Z,1.70
2017-12-25T21:40:18.606Z,1.30
2017-12-25T21:42:46.071Z,1.30
2017-12-25T21:45:13.525Z,1.00
2017-12-25T21:47:40.988Z,1.50
2017-12-25T21:50:08.505Z,1.40
2017-12-25T21:52:35.984Z,1.50
2017-12-25T21:55:03.449Z,1.40
2017-12-25T21:57:30.905Z,1.50
2017-12-25T21:59:58.403Z,1.50
2017-12-25T22:02:26.646Z,1.90
2017-12-25T22:04:54.118Z,1.83
2017-12-25T22:07:21.558Z,1.63
2017-12-25T22:09:49.025Z,1.50
2017-12-25T22:12:16.502Z,1.57
2017-12-25T22:14:43.970Z,1.63
2017-12-25T22:17:11.410Z,1.23
2017-12-25T22:19:38.903Z,1.33
2017-12-25T22:22:06.417Z,1.40
2017-12-25T22:24:34.634Z,1.53
2017-12-25T22:27:02.089Z,1.27
2017-12-25T22:29:29.562Z,1.33
2017-12-25T22:31:57.041Z,1.90
2017-12-25T22:34:24.502Z,1.33
2017-12-25T22:36:52.006Z,1.77
2017-12-25T22:39:19.466Z,1.43
2017-12-25T22:41:47.681Z,1.77
2017-12-25T22:44:15.154Z,1.33
2017-12-25T22:46:42.605Z,1.67
2017-12-25T22:49:10.134Z,1.40
2017-12-25T22:51:37.589Z,1.10
2017-12-25T22:54:05.834Z,1.93
2017-12-25T22:56:33.302Z,1.47
2017-12-25T22:59:00.767Z,1.53
2017-12-25T23:01:29.013Z,2.10
2017-12-25T23:03:56.494Z,1.80
2017-12-25T23:06:23.970Z,1.53
2017-12-25T23:08:52.220Z,2.00
2017-12-25T23:11:19.668Z,1.70
2017-12-25T23:13:47.117Z,2.00
2017-12-25T23:16:14.598Z,0.97
2017-12-25T23:18:42.092Z,2.07
2017-12-25T23:21:09.565Z,1.57
2017-12-25T23:23:37.020Z,1.60
2017-12-25T23:26:04.494Z,2.00
2017-12-25T23:28:32.049Z,2.03
2017-12-25T23:30:59.474Z,2.00
2017-12-25T23:33:27.685Z,1.80
2017-12-25T23:35:55.157Z,1.97
2017-12-25T23:38:22.627Z,1.90
2017-12-25T23:40:50.121Z,1.77
2017-12-25T23:43:17.565Z,3.03
2017-12-25T23:45:45.018Z,2.40
2017-12-25T23:48:12.489Z,2.33
2017-12-25T23:50:39.987Z,1.70
2017-12-25T23:53:07.456Z,2.20
2017-12-25T23:55:34.913Z,2.30
2017-12-25T23:58:03.253Z,2.13
